createdAt,value
2023-06-17T00:01:27.144Z,100042.16
2023-06-17T00:03:54.649Z,100043.84
2023-06-17T00:06:21.988Z,100046.59
2023-06-17T00:08:50.007Z,100037.06
2023-06-17T00:11:17.461Z,100038.03
2023-06-17T00:13:44.895Z,100039.84
2023-06-17T00:16:14.094Z,100039.09
2023-06-17T00:18:42.596Z,100023.53
2023-06-17T00:21:10.492Z,100021.94
2023-06-17T00:23:37.836Z,100022.66
2023-06-17T00:26:05.205Z,100026.03
2023-06-17T00:28:32.893Z,100026.88
2023-06-17T00:31:00.077Z,100027.72
2023-06-17T00:33:27.451Z,100026.03
2023-06-17T00:35:55.967Z,100022.59
2023-06-17T00:38:23.552Z,100017.44
2023-06-17T00:40:50.869Z,100025.25
2023-06-17T00:43:18.213Z,100028.81
2023-06-17T00:45:45.588Z,100023.75
2023-06-17T00:48:13.189Z,100016.97
2023-06-17T00:50:41.910Z,100022.19
2023-06-17T00:53:11.012Z,100027.66
2023-06-17T00:55:40.789Z,100022.53
2023-06-17T00:58:08.961Z,100014.03
2023-06-17T01:00:37.533Z,100017.53
2023-06-17T01:03:06.795Z,100017.66
2023-06-17T01:05:34.316Z,100019.34
2023-06-17T01:08:27.024Z,100019.34
2023-06-17T01:11:03.133Z,100016.81
2023-06-17T01:13:32.249Z,100014.25
2023-06-17T01:16:03.317Z,100015.97
2023-06-17T01:18:31.261Z,100022.88
2023-06-17T01:21:00.400Z,100022.03
2023-06-17T01:23:36.233Z,100017.66
2023-06-17T01:26:04.237Z,100023.69
2023-06-17T01:28:34.577Z,100015.13
2023-06-17T01:31:02.245Z,100009.03
2023-06-17T01:33:29.547Z,100016.94
2023-06-17T01:36:01.665Z,100004.03
2023-06-17T01:38:49.631Z,100007.69
2023-06-17T01:41:27.978Z,99996.72
2023-06-17T01:43:58.611Z,100005.41
2023-06-17T01:46:26.234Z,100008.94
2023-06-17T01:48:57.236Z,100009.75
2023-06-17T01:51:24.531Z,100008.84
2023-06-17T01:53:52.210Z,100008.94
2023-06-17T01:56:19.517Z,100003.63
2023-06-17T01:58:47.915Z,100000.19
2023-06-17T02:01:16.020Z,99990.78
2023-06-17T02:03:43.804Z,100002.06
2023-06-17T02:06:11.921Z,99997.94
2023-06-17T02:08:39.789Z,100003.03
2023-06-17T02:11:07.266Z,100003.03
2023-06-17T02:13:34.664Z,100003.88
2023-06-17T02:16:01.955Z,100004.84
2023-06-17T02:18:29.504Z,100006.66
2023-06-17T02:20:57.124Z,100008.69
2023-06-17T02:23:24.515Z,100016.34
2023-06-17T02:25:53.606Z,100007.72
2023-06-17T02:28:21.025Z,100014.81
2023-06-17T02:30:48.385Z,100004.53
2023-06-17T02:33:19.418Z,100013.06
2023-06-17T02:35:47.178Z,100014.81
2023-06-17T02:38:15.232Z,100017.31
2023-06-17T02:40:42.788Z,100018.16
2023-06-17T02:43:10.243Z,100023.38
2023-06-17T02:45:37.568Z,100014.00
2023-06-17T02:48:05.199Z,100014.81
2023-06-17T02:50:32.552Z,100012.31
2023-06-17T02:52:59.974Z,100010.41
2023-06-17T02:55:30.748Z,100012.09
2023-06-17T02:58:02.227Z,100015.63
2023-06-17T03:00:37.437Z,100019.06
2023-06-17T03:03:04.914Z,100019.03
2023-06-17T03:05:32.174Z,100020.75
2023-06-17T03:07:59.926Z,100015.50
2023-06-17T03:10:27.250Z,100008.47
2023-06-17T03:13:03.700Z,99998.16
2023-06-17T03:15:32.096Z,100008.28
2023-06-17T03:17:59.582Z,100008.25
2023-06-17T03:20:30.062Z,100011.78
2023-06-17T03:22:57.851Z,100016.88
2023-06-17T03:25:25.914Z,100015.91
2023-06-17T03:27:53.841Z,100017.66
2023-06-17T03:30:23.724Z,100015.03
2023-06-17T03:32:51.286Z,100015.03
2023-06-17T03:35:18.785Z,100017.56
2023-06-17T03:37:46.137Z,100020.25
2023-06-17T03:40:15.083Z,100020.25
2023-06-17T03:42:43.397Z,100013.47
2023-06-17T03:45:11.373Z,100008.38
2023-06-17T03:47:38.789Z,100008.38
2023-06-17T03:50:07.755Z,99996.31
2023-06-17T03:52:35.503Z,100010.91
2023-06-17T03:55:02.991Z,100008.38
2023-06-17T03:57:30.544Z,100004.94
2023-06-17T03:59:58.475Z,100019.59
2023-06-17T04:02:25.773Z,100015.16
2023-06-17T04:04:54.049Z,100017.00
2023-06-17T04:07:22.415Z,100023.75
2023-06-17T04:10:02.199Z,100014.97
2023-06-17T04:12:34.714Z,100021.50
2023-06-17T04:15:02.168Z,100017.91
2023-06-17T04:17:30.144Z,100018.69
2023-06-17T04:20:00.301Z,100013.53
2023-06-17T04:22:27.735Z,100012.44
2023-06-17T04:24:57.294Z,100014.03
2023-06-17T04:27:25.222Z,100015.00
2023-06-17T04:29:53.212Z,100019.25
2023-06-17T04:32:20.443Z,100024.47
2023-06-17T04:34:49.282Z,100022.66
2023-06-17T04:37:17.641Z,100025.94
2023-06-17T04:39:45.907Z,100017.41
2023-06-17T04:42:17.519Z,100025.94
2023-06-17T04:44:45.488Z,100030.06
2023-06-17T04:47:13.727Z,100035.97
2023-06-17T04:49:42.904Z,100035.81
2023-06-17T04:52:10.346Z,100035.81
2023-06-17T04:54:38.180Z,100031.84
2023-06-17T04:57:05.893Z,100020.31
2023-06-17T04:59:33.694Z,100026.13
2023-06-17T05:02:03.023Z,100027.59
2023-06-17T05:04:30.705Z,100022.09
2023-06-17T05:06:57.893Z,100010.81
2023-06-17T05:09:25.368Z,100026.09
2023-06-17T05:11:53.002Z,100025.25
2023-06-17T05:14:21.450Z,100026.97
2023-06-17T05:16:49.636Z,100023.44
2023-06-17T05:19:17.304Z,100018.09
2023-06-17T05:21:44.807Z,100027.63
2023-06-17T05:24:15.331Z,100024.91
2023-06-17T05:26:42.706Z,100016.13
2023-06-17T05:29:10.293Z,100003.38
2023-06-17T05:31:39.847Z,100010.91
2023-06-17T05:34:07.360Z,100010.91
2023-06-17T05:36:35.397Z,100010.91
2023-06-17T05:39:02.972Z,100012.59
2023-06-17T05:41:30.308Z,100014.19
2023-06-17T05:43:57.865Z,100013.25
2023-06-17T05:46:25.477Z,100017.59
2023-06-17T05:48:52.879Z,100001.78
2023-06-17T05:51:21.236Z,99991.56
2023-06-17T05:53:48.560Z,100012.56
2023-06-17T05:56:16.039Z,100009.47
2023-06-17T05:58:43.544Z,100016.16
2023-06-17T06:01:19.588Z,100012.28
2023-06-17T06:03:47.084Z,100013.81
2023-06-17T06:06:14.419Z,100010.19
2023-06-17T06:08:41.941Z,100015.00
2023-06-17T06:11:09.188Z,100010.34
2023-06-17T06:13:36.581Z,100013.53
2023-06-17T06:16:05.163Z,100010.91
2023-06-17T06:18:33.581Z,100021.09
2023-06-17T06:21:01.076Z,100023.66
2023-06-17T06:23:28.695Z,100026.09
2023-06-17T06:25:56.556Z,100026.75
2023-06-17T06:28:23.925Z,100012.91
2023-06-17T06:30:51.296Z,100017.16
2023-06-17T06:33:18.758Z,100025.66
2023-06-17T06:35:46.051Z,100022.13
2023-06-17T06:38:17.796Z,100019.25
2023-06-17T06:40:45.854Z,100026.13
2023-06-17T06:43:13.357Z,100024.00
2023-06-17T06:45:55.128Z,100019.34
2023-06-17T06:48:23.922Z,100016.75
2023-06-17T06:50:51.577Z,100007.31
2023-06-17T06:53:22.754Z,100007.69
2023-06-17T06:55:51.391Z,100013.06
2023-06-17T06:58:19.659Z,100012.06
2023-06-17T07:00:47.098Z,100018.78
2023-06-17T07:03:14.838Z,100017.41
2023-06-17T07:05:42.252Z,100022.81
2023-06-17T07:08:11.488Z,100016.00
2023-06-17T07:10:42.411Z,100018.56
2023-06-17T07:13:11.234Z,100009.84
2023-06-17T07:15:41.520Z,100014.88
2023-06-17T07:18:09.421Z,100010.94
2023-06-17T07:20:36.796Z,100014.13
2023-06-17T07:23:04.078Z,100006.25
2023-06-17T07:25:31.792Z,100001.03
2023-06-17T07:28:01.302Z,100004.19
2023-06-17T07:30:29.196Z,100001.50
2023-06-17T07:32:57.588Z,100007.34
2023-06-17T07:35:26.300Z,99997.50
2023-06-17T07:37:54.230Z,100006.00
2023-06-17T07:40:22.513Z,100004.38
2023-06-17T07:42:50.044Z,100001.38
2023-06-17T07:45:17.434Z,100000.22
2023-06-17T07:47:44.828Z,99990.94
2023-06-17T07:50:12.428Z,100002.34
2023-06-17T07:52:39.931Z,100006.84
2023-06-17T07:55:09.936Z,99988.22
2023-06-17T07:57:37.812Z,99997.06
2023-06-17T08:00:14.549Z,100008.69
2023-06-17T08:02:44.363Z,99995.03
2023-06-17T08:05:12.188Z,100006.78
2023-06-17T08:07:39.519Z,100005.50
2023-06-17T08:10:09.842Z,100007.50
2023-06-17T08:12:37.745Z,100014.97
2023-06-17T08:15:05.501Z,100001.97
2023-06-17T08:17:33.203Z,100003.31
2023-06-17T08:20:01.278Z,100007.31
2023-06-17T08:22:28.565Z,100003.75
2023-06-17T08:24:55.940Z,100005.19
2023-06-17T08:27:23.261Z,99999.03
2023-06-17T08:29:50.631Z,100003.38
2023-06-17T08:32:18.027Z,99999.34
2023-06-17T08:34:45.610Z,99999.88
2023-06-17T08:37:12.845Z,100007.34
2023-06-17T08:39:41.181Z,99998.44
2023-06-17T08:42:10.344Z,100000.75
2023-06-17T08:44:42.762Z,100005.47
2023-06-17T08:47:15.078Z,100006.69
2023-06-17T08:49:45.610Z,100003.59
2023-06-17T08:52:15.684Z,99987.22
2023-06-17T08:54:42.992Z,99989.38
2023-06-17T08:57:16.652Z,99989.63
2023-06-17T08:59:44.089Z,99987.47
2023-06-17T09:02:14.320Z,99979.78
2023-06-17T09:04:41.906Z,99984.59
2023-06-17T09:07:10.943Z,99986.66
2023-06-17T09:09:38.884Z,99974.50
2023-06-17T09:12:07.282Z,99981.03
2023-06-17T09:14:35.445Z,99970.94
2023-06-17T09:17:04.533Z,99974.31
2023-06-17T09:19:35.163Z,99971.16
2023-06-17T09:22:09.712Z,99970.66
2023-06-17T09:24:44.427Z,99968.72
2023-06-17T09:27:22.782Z,99974.72
2023-06-17T09:30:08.037Z,99970.88
2023-06-17T09:32:44.309Z,99965.09
2023-06-17T09:35:16.009Z,99956.75
2023-06-17T09:38:03.179Z,99962.41
2023-06-17T09:40:35.113Z,99965.84
2023-06-17T09:43:25.171Z,99960.38
2023-06-17T09:45:56.756Z,99959.63
2023-06-17T09:48:31.205Z,99964.75
2023-06-17T09:50:58.858Z,99963.72
2023-06-17T09:53:31.252Z,99959.81
2023-06-17T09:56:01.496Z,99965.09
2023-06-17T09:58:32.683Z,99969.66
2023-06-17T10:01:02.186Z,99964.28
2023-06-17T10:03:29.599Z,99955.72
2023-06-17T10:06:08.471Z,99945.03
2023-06-17T10:08:41.630Z,99958.63
2023-06-17T10:11:09.197Z,99951.00
2023-06-17T10:13:38.287Z,99951.22
2023-06-17T10:16:11.195Z,99954.59
2023-06-17T10:18:41.298Z,99949.19
2023-06-17T10:21:10.236Z,99947.06
2023-06-17T10:23:38.745Z,99946.53
2023-06-17T10:26:09.934Z,99947.97
2023-06-17T10:28:58.106Z,99944.63
2023-06-17T10:31:27.627Z,99956.44
2023-06-17T10:33:57.291Z,99950.44
2023-06-17T10:36:26.036Z,99943.00
2023-06-17T10:39:06.080Z,99950.78
2023-06-17T10:41:39.836Z,99955.47
2023-06-17T10:44:26.678Z,99944.59
2023-06-17T10:46:55.314Z,99953.22
2023-06-17T10:49:23.623Z,99967.75
2023-06-17T10:51:58.304Z,99965.50
2023-06-17T10:54:32.043Z,99961.56
2023-06-17T10:57:04.113Z,99965.59
2023-06-17T10:59:33.581Z,99979.47
2023-06-17T11:02:08.593Z,99983.81
2023-06-17T11:04:38.372Z,99987.47
2023-06-17T11:07:06.666Z,99987.28
2023-06-17T11:09:36.282Z,99991.91
2023-06-17T11:12:05.517Z,100004.66
2023-06-17T11:14:39.023Z,99994.34
2023-06-17T11:17:09.159Z,99994.38
2023-06-17T11:19:36.347Z,99990.41
2023-06-17T11:22:07.727Z,99999.56
2023-06-17T11:24:36.530Z,100010.09
2023-06-17T11:27:07.108Z,100008.16
2023-06-17T11:29:34.759Z,99988.72
2023-06-17T11:32:03.524Z,99990.13
2023-06-17T11:34:33.511Z,99995.41
2023-06-17T11:37:02.499Z,99995.00
2023-06-17T11:39:32.264Z,100000.84
2023-06-17T11:42:03.690Z,99990.09
2023-06-17T11:44:33.033Z,99992.75
2023-06-17T11:47:05.512Z,100002.03
2023-06-17T11:49:32.893Z,100000.88
2023-06-17T11:52:11.179Z,99996.75
2023-06-17T11:54:52.217Z,100003.50
2023-06-17T11:57:22.326Z,100012.34
2023-06-17T11:59:51.377Z,100008.03
2023-06-17T12:02:19.739Z,99999.06
2023-06-17T12:04:48.062Z,99997.59
2023-06-17T12:07:15.676Z,99990.09
2023-06-17T12:09:54.595Z,99985.38
2023-06-17T12:12:36.130Z,99978.41
2023-06-17T12:15:15.057Z,99981.75
2023-06-17T12:17:46.795Z,99974.47
2023-06-17T12:20:19.554Z,99976.81
2023-06-17T12:22:49.477Z,99990.09
2023-06-17T12:25:16.915Z,99983.97
2023-06-17T12:27:44.790Z,99988.94
2023-06-17T12:30:13.935Z,99993.66
2023-06-17T12:32:42.079Z,99981.09
2023-06-17T12:35:13.656Z,99989.44
2023-06-17T12:37:42.803Z,99990.59
2023-06-17T12:40:10.988Z,99998.50
2023-06-17T12:42:38.536Z,99997.50
2023-06-17T12:45:07.533Z,100004.03
2023-06-17T12:47:35.756Z,99989.72
2023-06-17T12:50:03.865Z,99989.59
2023-06-17T12:52:31.768Z,99995.53
2023-06-17T12:55:00.520Z,99991.72
2023-06-17T12:57:28.788Z,99993.81
2023-06-17T12:59:56.281Z,99996.78
2023-06-17T13:02:23.687Z,99996.59
2023-06-17T13:04:51.156Z,100003.00
2023-06-17T13:07:18.962Z,99999.63
2023-06-17T13:09:46.287Z,100000.34
2023-06-17T13:12:15.131Z,99993.41
2023-06-17T13:14:42.657Z,100001.09
2023-06-17T13:17:11.361Z,99987.28
2023-06-17T13:19:38.960Z,100005.63
2023-06-17T13:22:06.932Z,100009.41
2023-06-17T13:24:34.715Z,100005.47
2023-06-17T13:27:02.976Z,100001.50
2023-06-17T13:31:57.656Z,100012.25
2023-06-17T13:34:25.010Z,100017.53
2023-06-17T13:36:52.450Z,100021.97
2023-06-17T13:39:19.982Z,100023.19
2023-06-17T13:41:47.432Z,100027.13
2023-06-17T13:44:15.043Z,100030.34
2023-06-17T13:46:42.327Z,100031.81
2023-06-17T13:49:09.692Z,100030.03
2023-06-17T13:51:37.080Z,100031.13
2023-06-17T13:54:04.637Z,100031.03
2023-06-17T13:56:32.195Z,100036.63
2023-06-17T13:58:59.889Z,100035.69
2023-06-17T14:01:27.276Z,100029.59
2023-06-17T14:03:54.970Z,100032.16
2023-06-17T14:06:22.910Z,100033.69
2023-06-17T14:08:50.312Z,100031.50
2023-06-17T14:11:17.616Z,100036.94
2023-06-17T14:13:45.072Z,100033.38
2023-06-17T14:16:13.216Z,100034.22
2023-06-17T14:18:40.733Z,100020.38
2023-06-17T14:21:08.549Z,100024.56
2023-06-17T14:23:51.974Z,100023.53
2023-06-17T14:26:19.552Z,100026.59
2023-06-17T14:28:47.010Z,100020.16
2023-06-17T14:31:14.507Z,100030.84
2023-06-17T14:33:41.902Z,100023.13
2023-06-17T14:36:09.664Z,100018.47
2023-06-17T14:38:37.058Z,100019.97
2023-06-17T14:41:04.344Z,100014.72
2023-06-17T14:43:31.632Z,100021.50
2023-06-17T14:45:59.745Z,100013.34
2023-06-17T14:48:27.123Z,100011.41
2023-06-17T14:50:54.544Z,100014.72
2023-06-17T14:53:33.299Z,100012.91
2023-06-17T14:56:34.257Z,100005.97
2023-06-17T14:59:04.048Z,100013.69
2023-06-17T15:01:32.735Z,100009.19
2023-06-17T15:04:00.602Z,100017.25
2023-06-17T15:06:28.006Z,100015.72
2023-06-17T15:09:18.817Z,100019.47
2023-06-17T15:11:49.108Z,100023.19
2023-06-17T15:14:16.377Z,100015.38
2023-06-17T15:16:43.915Z,100011.00
2023-06-17T15:19:11.200Z,100023.19
2023-06-17T15:21:39.072Z,100023.38
2023-06-17T15:24:07.915Z,100016.09
2023-06-17T15:26:36.093Z,100014.22
2023-06-17T15:29:07.586Z,100010.56
2023-06-17T15:31:35.432Z,100011.41
2023-06-17T15:34:03.852Z,100013.88
2023-06-17T15:36:31.827Z,100008.25
2023-06-17T15:39:02.954Z,100017.56
2023-06-17T15:41:30.673Z,100015.53
2023-06-17T15:43:58.880Z,100009.06
2023-06-17T15:46:26.244Z,100005.66
2023-06-17T15:48:53.588Z,100009.06
2023-06-17T15:51:21.126Z,100004.31
2023-06-17T15:53:50.801Z,100001.09
2023-06-17T15:56:19.558Z,99993.41
2023-06-17T15:58:47.074Z,99991.16
2023-06-17T16:01:15.117Z,99985.34
2023-06-17T16:03:43.457Z,99993.44
2023-06-17T16:06:11.464Z,99994.75
2023-06-17T16:08:39.569Z,100001.53
2023-06-17T16:11:07.046Z,99997.97
2023-06-17T16:13:34.372Z,99996.06
2023-06-17T16:16:01.609Z,99995.03
2023-06-17T16:18:29.022Z,99985.00
2023-06-17T16:20:56.462Z,99998.88
2023-06-17T16:23:24.045Z,99995.53
2023-06-17T16:25:56.049Z,99994.75
2023-06-17T16:28:23.714Z,99992.13
2023-06-17T16:30:51.255Z,99981.69
2023-06-17T16:33:18.565Z,99982.69
2023-06-17T16:35:49.820Z,99983.28
2023-06-17T16:38:17.153Z,99974.50
2023-06-17T16:40:44.547Z,99987.00
2023-06-17T16:43:11.859Z,99996.63
2023-06-17T16:45:39.166Z,99989.63
2023-06-17T16:48:09.587Z,99983.06
2023-06-17T16:50:38.041Z,99995.84
2023-06-17T16:53:05.379Z,99989.63
2023-06-17T16:55:34.507Z,99998.47
2023-06-17T16:58:01.994Z,99999.41
2023-06-17T17:00:30.965Z,100007.47
2023-06-17T17:02:59.217Z,100007.47
2023-06-17T17:05:26.688Z,100009.38
2023-06-17T17:07:55.495Z,100003.53
2023-06-17T17:10:26.331Z,100010.47
2023-06-17T17:12:54.148Z,100016.69
2023-06-17T17:15:23.318Z,100018.56
2023-06-17T17:17:51.183Z,100019.59
2023-06-17T17:20:19.564Z,100012.69
2023-06-17T17:22:49.456Z,100015.50
2023-06-17T17:25:17.761Z,100005.22
2023-06-17T17:27:46.411Z,100001.75
2023-06-17T17:30:15.631Z,99996.84
2023-06-17T17:32:43.856Z,99997.94
2023-06-17T17:35:12.153Z,99993.81
2023-06-17T17:37:41.030Z,99995.69
2023-06-17T17:40:09.508Z,99998.56
2023-06-17T17:42:37.308Z,99995.28
2023-06-17T17:45:05.241Z,99988.41
2023-06-17T17:47:33.356Z,99989.44
2023-06-17T17:50:01.609Z,99986.38
2023-06-17T17:52:29.452Z,99991.66
2023-06-17T17:55:01.591Z,99987.66
2023-06-17T17:57:30.712Z,99990.47
2023-06-17T17:59:59.023Z,99987.25
2023-06-17T18:02:26.784Z,99986.31
2023-06-17T18:04:54.814Z,99992.69
2023-06-17T18:07:22.889Z,99991.16
2023-06-17T18:09:51.068Z,99995.06
2023-06-17T18:12:18.853Z,99993.56
2023-06-17T18:14:46.705Z,99999.72
2023-06-17T18:17:14.386Z,100009.41
2023-06-17T18:19:44.838Z,100004.50
2023-06-17T18:22:12.795Z,100009.28
2023-06-17T18:24:40.759Z,100011.13
2023-06-17T18:27:08.683Z,100004.50
2023-06-17T18:29:38.095Z,100009.75
2023-06-17T18:32:06.306Z,100007.38
2023-06-17T18:34:34.144Z,100013.47
2023-06-17T18:37:02.129Z,99996.34
2023-06-17T18:39:30.034Z,100016.34
2023-06-17T18:41:58.120Z,100024.38
2023-06-17T18:44:25.715Z,100026.25
2023-06-17T18:46:53.581Z,100029.38
2023-06-17T18:49:27.501Z,100031.38
2023-06-17T18:51:55.423Z,100036.81
2023-06-17T18:54:24.276Z,100031.00
2023-06-17T18:56:52.104Z,100036.41
2023-06-17T18:59:20.220Z,100034.06
2023-06-17T19:01:48.050Z,100046.56
2023-06-17T19:04:16.200Z,100046.16
2023-06-17T19:06:43.762Z,100052.41
2023-06-17T19:09:11.588Z,100062.09
2023-06-17T19:11:39.915Z,100065.72
2023-06-17T19:14:07.894Z,100072.00
2023-06-17T19:16:36.961Z,100073.84
2023-06-17T19:19:07.160Z,100073.91
2023-06-17T19:21:35.341Z,100088.03
2023-06-17T19:24:03.303Z,100081.25
2023-06-17T19:26:31.156Z,100087.50
2023-06-17T19:28:59.648Z,100076.59
2023-06-17T19:31:27.739Z,100083.56
2023-06-17T19:33:55.885Z,100090.63
2023-06-17T19:36:23.496Z,100083.97
2023-06-17T19:38:51.197Z,100090.78
2023-06-17T19:41:18.887Z,100087.38
2023-06-17T19:43:48.493Z,100088.44
2023-06-17T19:46:17.968Z,100093.84
2023-06-17T19:48:46.233Z,100095.06
2023-06-17T19:51:14.228Z,100096.91
2023-06-17T19:53:42.055Z,100097.97
2023-06-17T19:56:10.138Z,100095.78
2023-06-17T19:58:39.154Z,100104.75
2023-06-17T20:01:07.134Z,100101.63
2023-06-17T20:03:35.418Z,100101.00
2023-06-17T20:06:03.659Z,100103.75
2023-06-17T20:08:31.582Z,100105.59
2023-06-17T20:10:59.206Z,100104.13
2023-06-17T20:13:27.106Z,100105.25
2023-06-17T20:15:54.783Z,100112.47
2023-06-17T20:18:22.595Z,100111.78
2023-06-17T20:20:50.202Z,100117.84
2023-06-17T20:23:18.385Z,100115.28
2023-06-17T20:25:46.259Z,100120.81
2023-06-17T20:28:14.083Z,100114.88
2023-06-17T20:30:42.553Z,100116.78
2023-06-17T20:33:10.344Z,100121.22
2023-06-17T20:35:38.347Z,100120.59
2023-06-17T20:38:06.751Z,100121.63
2023-06-17T20:40:38.605Z,100113.00
2023-06-17T20:43:06.010Z,100113.16
2023-06-17T20:45:33.454Z,100111.41
2023-06-17T20:48:01.170Z,100109.72
2023-06-17T20:50:28.595Z,100111.69
2023-06-17T20:52:57.952Z,100114.19
2023-06-17T20:55:31.961Z,100115.09
2023-06-17T20:57:59.411Z,100116.94
2023-06-17T21:00:26.932Z,100111.00
2023-06-17T21:02:54.655Z,100115.50
2023-06-17T21:05:22.223Z,100113.94
2023-06-17T21:07:49.735Z,100107.13
2023-06-17T21:10:17.201Z,100114.97
2023-06-17T21:12:45.023Z,100115.75
2023-06-17T21:15:12.440Z,100110.66
2023-06-17T21:17:39.909Z,100113.41
2023-06-17T21:20:09.964Z,100116.16
2023-06-17T21:22:37.863Z,100105.78
2023-06-17T21:25:05.704Z,100105.03
2023-06-17T21:27:33.119Z,100106.06
2023-06-17T21:30:00.802Z,100109.75
2023-06-17T21:32:28.234Z,100108.16
2023-06-17T21:34:55.842Z,100108.25
2023-06-17T21:37:24.083Z,100109.94
2023-06-17T21:39:52.973Z,100112.69
2023-06-17T21:42:20.238Z,100113.63
2023-06-17T21:44:47.467Z,100113.75
2023-06-17T21:47:14.887Z,100115.69
2023-06-17T21:49:42.281Z,100115.81
2023-06-17T21:52:09.705Z,100114.09
2023-06-17T21:54:37.252Z,100111.56
2023-06-17T21:57:04.723Z,100115.97
2023-06-17T21:59:32.138Z,100117.78
2023-06-17T22:01:59.489Z,100126.47
2023-06-17T22:04:26.789Z,100119.59
2023-06-17T22:07:21.192Z,100116.44
2023-06-17T22:10:07.391Z,100126.91
2023-06-17T22:12:46.933Z,100123.50
2023-06-17T22:15:34.032Z,100131.53
2023-06-17T22:18:31.766Z,100132.38
2023-06-17T22:21:13.614Z,100130.56
2023-06-17T22:23:41.923Z,100133.19
2023-06-17T22:26:09.502Z,100129.69
2023-06-17T22:28:36.825Z,100131.47
2023-06-17T22:31:04.070Z,100124.53
2023-06-17T22:33:31.449Z,100131.72
2023-06-17T22:35:58.759Z,100128.25
2023-06-17T22:38:26.240Z,100126.53
2023-06-17T22:40:53.658Z,100125.09
2023-06-17T22:43:21.561Z,100129.56
2023-06-17T22:45:50.036Z,100129.69
2023-06-17T22:48:17.478Z,100124.59
2023-06-17T22:50:45.017Z,100127.31
2023-06-17T22:53:12.850Z,100127.31
2023-06-17T22:55:40.130Z,100130.19
2023-06-17T22:58:07.417Z,100126.53
2023-06-17T23:00:34.725Z,100131.75
2023-06-17T23:03:02.001Z,100112.78
2023-06-17T23:05:29.605Z,100116.41
2023-06-17T23:07:56.985Z,100129.34
2023-06-17T23:10:24.597Z,100130.31
2023-06-17T23:12:52.367Z,100125.19
2023-06-17T23:15:19.666Z,100132.25
2023-06-17T23:17:46.911Z,100122.78
2023-06-17T23:20:14.568Z,100111.66
2023-06-17T23:22:42.427Z,100116.81
2023-06-17T23:25:11.488Z,100118.50
2023-06-17T23:27:38.879Z,100112.41
2023-06-17T23:30:07.889Z,100109.06
2023-06-17T23:32:35.159Z,100105.72
2023-06-17T23:35:03.146Z,100118.06
2023-06-17T23:37:30.416Z,100112.94
2023-06-17T23:39:57.609Z,100118.16
2023-06-17T23:42:24.939Z,100114.69
2023-06-17T23:44:53.443Z,100114.75
2023-06-17T23:47:21.412Z,100119.38
2023-06-17T23:49:49.716Z,100130.69
2023-06-17T23:52:17.005Z,100126.41
2023-06-17T23:54:44.414Z,100131.72
2023-06-17T23:57:12.173Z,100127.38
2023-06-17T23:59:39.571Z,100123.13
